Time;durP1;ratioP1;P1;durP2;ratioP2;P2;SDS_P1;SDS_P2;PMS_P1;PMS_P2;Temp;Humidity;BMP_temperature;BMP_pressure;BME280_temperature;BME280_humidity;BME280_pressure;Samples;Min_cycle;Max_cycle;Signal;HPM_P1;HPM_P2
2022/04/14 00:01:22;;;;;;;12.27;4.70;;;;;;;;;;5041984;28;20489;-73
2022/04/14 00:03:48;;;;;;;12.77;5.10;;;;;;;;;;5036263;28;20060;-72
2022/04/14 00:06:14;;;;;;;18.30;4.35;;;;;;;;;;5041222;28;20049;-73
2022/04/14 00:08:40;;;;;;;13.30;4.18;;;;;;;;;;5036185;28;20528;-73
2022/04/14 00:11:06;;;;;;;13.93;5.18;;;;;;;;;;5039271;28;20040;-73
2022/04/14 00:13:32;;;;;;;13.30;4.70;;;;;;;;;;5036826;28;20044;-72
2022/04/14 00:15:58;;;;;;;14.73;4.18;;;;;;;;;;5025642;28;20037;-72
2022/04/14 00:18:24;;;;;;;14.60;4.03;;;;;;;;;;5037968;28;20044;-72
2022/04/14 00:20:50;;;;;;;13.98;4.30;;;;;;;;;;5034294;28;20044;-73
2022/04/14 00:23:16;;;;;;;11.18;3.63;;;;;;;;;;5034849;28;20028;-72
2022/04/14 00:25:42;;;;;;;11.88;3.97;;;;;;;;;;5030806;28;20034;-72
2022/04/14 00:28:09;;;;;;;11.63;3.50;;;;;;;;;;5040844;28;20031;-72
2022/04/14 00:30:35;;;;;;;8.70;3.15;;;;;;;;;;5017819;28;20037;-72
2022/04/14 00:33:01;;;;;;;13.23;4.63;;;;;;;;;;5036763;28;20034;-73
2022/04/14 00:35:27;;;;;;;8.90;4.13;;;;;;;;;;5017580;28;20029;-72
2022/04/14 00:37:53;;;;;;;14.73;4.55;;;;;;;;;;5042082;28;20033;-72
2022/04/14 00:40:19;;;;;;;16.45;4.78;;;;;;;;;;5035878;28;20029;-72
2022/04/14 00:42:45;;;;;;;12.18;3.10;;;;;;;;;;5035443;28;20083;-73
2022/04/14 00:45:12;;;;;;;10.70;2.50;;;;;;;;;;5035545;28;20482;-72
2022/04/14 00:47:38;;;;;;;9.88;2.33;;;;;;;;;;5042144;28;20086;-72
2022/04/14 00:50:05;;;;;;;8.57;1.85;;;;;;;;;;5043072;28;20717;-72
2022/04/14 00:52:31;;;;;;;8.77;1.70;;;;;;;;;;5037689;28;20029;-72
2022/04/14 00:54:57;;;;;;;9.00;2.30;;;;;;;;;;5035726;28;20821;-72
2022/04/14 00:57:23;;;;;;;8.32;2.45;;;;;;;;;;5038230;28;20035;-72
2022/04/14 00:59:49;;;;;;;8.57;2.50;;;;;;;;;;5040659;28;20033;-72
2022/04/14 01:02:15;;;;;;;7.85;2.40;;;;;;;;;;5048241;28;20356;-72
2022/04/14 01:04:42;;;;;;;10.93;2.97;;;;;;;;;;5044078;28;20474;-72
2022/04/14 01:07:08;;;;;;;8.15;3.53;;;;;;;;;;5043358;28;20036;-72
2022/04/14 01:09:36;;;;;;;15.13;5.70;;;;;;;;;;5038773;28;20118;-72
2022/04/14 01:12:03;;;;;;;12.93;5.30;;;;;;;;;;5035074;28;20026;-72
2022/04/14 01:14:34;;;;;;;14.40;5.20;;;;;;;;;;5036965;28;20174;-72
2022/04/14 01:17:05;;;;;;;14.63;5.80;;;;;;;;;;5037109;28;20029;-73
2022/04/14 01:19:31;;;;;;;9.93;5.47;;;;;;;;;;5036273;28;20662;-72
2022/04/14 01:21:57;;;;;;;12.98;7.03;;;;;;;;;;5025149;28;20033;-72
2022/04/14 01:24:24;;;;;;;12.93;6.20;;;;;;;;;;5019897;28;20057;-72
2022/04/14 01:26:50;;;;;;;11.40;5.75;;;;;;;;;;5037542;28;20033;-73
2022/04/14 01:29:20;;;;;;;12.13;5.15;;;;;;;;;;5036956;28;20074;-73
2022/04/14 01:31:46;;;;;;;7.20;3.20;;;;;;;;;;5034329;28;20021;-72
2022/04/14 01:34:12;;;;;;;10.23;3.72;;;;;;;;;;5036700;28;20051;-73
2022/04/14 01:36:38;;;;;;;10.75;4.53;;;;;;;;;;5035569;28;20437;-72
2022/04/14 01:39:04;;;;;;;11.75;5.60;;;;;;;;;;5039099;28;20030;-72
2022/04/14 01:41:30;;;;;;;13.23;4.25;;;;;;;;;;5039942;28;20033;-73
2022/04/14 01:43:56;;;;;;;10.25;2.40;;;;;;;;;;5048685;28;20048;-73
2022/04/14 01:46:22;;;;;;;6.90;2.08;;;;;;;;;;5048994;28;20206;-72
2022/04/14 01:48:48;;;;;;;7.88;2.53;;;;;;;;;;5031309;28;20586;-73
2022/04/14 01:51:14;;;;;;;15.45;2.58;;;;;;;;;;5046713;28;20110;-72
2022/04/14 01:53:40;;;;;;;12.82;3.90;;;;;;;;;;5037555;28;20033;-73
2022/04/14 01:56:06;;;;;;;10.00;2.90;;;;;;;;;;5044376;28;20033;-72
2022/04/14 01:58:32;;;;;;;5.97;2.30;;;;;;;;;;5045068;28;20040;-73
2022/04/14 02:00:58;;;;;;;8.07;2.70;;;;;;;;;;5045093;28;20033;-73
2022/04/14 02:03:24;;;;;;;9.43;2.80;;;;;;;;;;5039421;28;20071;-73
2022/04/14 02:05:50;;;;;;;9.80;2.10;;;;;;;;;;5040254;28;20475;-73
2022/04/14 02:08:16;;;;;;;7.93;2.50;;;;;;;;;;5039682;28;20056;-73
2022/04/14 02:10:42;;;;;;;9.15;3.05;;;;;;;;;;5042308;28;20064;-73
2022/04/14 02:13:08;;;;;;;12.13;3.50;;;;;;;;;;5040293;28;20061;-73
2022/04/14 02:15:34;;;;;;;11.77;3.28;;;;;;;;;;5032713;28;20411;-73
2022/04/14 02:18:00;;;;;;;9.63;3.22;;;;;;;;;;5036778;28;20025;-73
2022/04/14 02:20:26;;;;;;;12.07;3.30;;;;;;;;;;5043169;28;20037;-73
2022/04/14 02:22:52;;;;;;;11.45;3.28;;;;;;;;;;5037417;28;20564;-73
2022/04/14 02:25:18;;;;;;;14.02;2.90;;;;;;;;;;5041748;28;20040;-73
2022/04/14 02:27:44;;;;;;;8.48;2.90;;;;;;;;;;5037635;28;20030;-73
2022/04/14 02:30:10;;;;;;;9.80;2.38;;;;;;;;;;5046755;28;20034;-73
2022/04/14 02:32:37;;;;;;;7.18;2.50;;;;;;;;;;5039325;28;20112;-73
2022/04/14 02:35:04;;;;;;;11.63;2.67;;;;;;;;;;5045453;28;20037;-73
2022/04/14 02:37:30;;;;;;;11.95;3.35;;;;;;;;;;5031486;28;20116;-73
2022/04/14 02:39:56;;;;;;;10.73;4.10;;;;;;;;;;5038734;28;20080;-73
2022/04/14 02:42:22;;;;;;;9.70;2.38;;;;;;;;;;5051201;28;20067;-73
2022/04/14 02:44:48;;;;;;;12.82;3.28;;;;;;;;;;5041540;28;20049;-73
2022/04/14 02:47:14;;;;;;;11.48;2.67;;;;;;;;;;5046587;28;20053;-73
2022/04/14 02:49:40;;;;;;;12.63;3.67;;;;;;;;;;5018689;28;20653;-73
2022/04/14 02:52:06;;;;;;;15.35;5.22;;;;;;;;;;5047251;28;20124;-73
2022/04/14 02:54:37;;;;;;;15.93;8.80;;;;;;;;;;5037961;28;20083;-73
2022/04/14 02:57:04;;;;;;;14.95;6.80;;;;;;;;;;5045189;28;20115;-73
2022/04/14 02:59:30;;;;;;;9.38;3.33;;;;;;;;;;5039599;28;20052;-73
2022/04/14 03:01:56;;;;;;;7.45;2.30;;;;;;;;;;5040122;28;20447;-73
2022/04/14 03:04:22;;;;;;;11.63;2.33;;;;;;;;;;5038335;28;20059;-73
2022/04/14 03:06:48;;;;;;;10.30;2.88;;;;;;;;;;5022790;28;20047;-73
2022/04/14 03:09:14;;;;;;;7.85;2.00;;;;;;;;;;5033903;28;20773;-73
2022/04/14 03:11:40;;;;;;;10.90;2.10;;;;;;;;;;5041408;28;20041;-73
2022/04/14 03:14:06;;;;;;;10.82;4.07;;;;;;;;;;5039538;28;20473;-73
2022/04/14 03:16:33;;;;;;;12.40;4.30;;;;;;;;;;5037468;28;20528;-73
2022/04/14 03:18:58;;;;;;;16.90;4.70;;;;;;;;;;5036487;28;20038;-73
2022/04/14 03:21:24;;;;;;;8.32;1.98;;;;;;;;;;5039603;28;20029;-73
2022/04/14 03:23:50;;;;;;;9.43;1.60;;;;;;;;;;5036099;28;20116;-73
2022/04/14 03:26:17;;;;;;;7.22;2.08;;;;;;;;;;5035216;28;20585;-72
2022/04/14 03:28:43;;;;;;;13.15;3.40;;;;;;;;;;5033414;28;20037;-73
2022/04/14 03:31:10;;;;;;;13.80;3.95;;;;;;;;;;5037213;28;20033;-73
2022/04/14 03:33:36;;;;;;;8.82;3.47;;;;;;;;;;5040682;28;20806;-73
2022/04/14 03:36:02;;;;;;;8.82;3.30;;;;;;;;;;5038878;28;20117;-73
2022/04/14 03:38:28;;;;;;;10.70;2.67;;;;;;;;;;5042461;28;20128;-73
2022/04/14 03:40:54;;;;;;;15.57;4.15;;;;;;;;;;5035585;28;20060;-73
2022/04/14 03:43:20;;;;;;;15.40;4.35;;;;;;;;;;5038188;28;20037;-73
2022/04/14 03:45:46;;;;;;;15.57;5.22;;;;;;;;;;5035507;28;20733;-73
2022/04/14 03:48:12;;;;;;;10.95;4.22;;;;;;;;;;5035592;28;20141;-73
2022/04/14 03:50:38;;;;;;;14.77;4.68;;;;;;;;;;5036951;28;20105;-73
2022/04/14 03:53:04;;;;;;;13.88;4.00;;;;;;;;;;5040895;28;20776;-73
2022/04/14 03:55:30;;;;;;;8.38;3.58;;;;;;;;;;5039044;28;20033;-73
2022/04/14 03:57:56;;;;;;;11.43;3.97;;;;;;;;;;5041399;28;20029;-73
2022/04/14 04:00:23;;;;;;;10.73;4.07;;;;;;;;;;5036005;28;20026;-73
2022/04/14 04:02:49;;;;;;;14.90;3.80;;;;;;;;;;5040459;28;20049;-73
2022/04/14 04:05:15;;;;;;;12.90;4.25;;;;;;;;;;5033392;28;20045;-73
2022/04/14 04:07:41;;;;;;;18.92;7.43;;;;;;;;;;5039236;28;20119;-73
2022/04/14 04:10:07;;;;;;;21.90;7.43;;;;;;;;;;5029051;28;20633;-73
2022/04/14 04:12:33;;;;;;;21.23;8.20;;;;;;;;;;5035471;28;20044;-73
2022/04/14 04:14:59;;;;;;;15.25;5.38;;;;;;;;;;5034932;28;20036;-73
2022/04/14 04:17:25;;;;;;;15.75;4.38;;;;;;;;;;5040388;28;20116;-73
2022/04/14 04:19:51;;;;;;;12.05;4.60;;;;;;;;;;5039472;28;20482;-73
2022/04/14 04:22:17;;;;;;;10.70;3.80;;;;;;;;;;5037523;28;20055;-73
2022/04/14 04:24:43;;;;;;;12.77;4.22;;;;;;;;;;5041026;28;20041;-73
2022/04/14 04:27:09;;;;;;;12.23;4.50;;;;;;;;;;5035220;28;20036;-73
2022/04/14 04:29:35;;;;;;;10.60;4.15;;;;;;;;;;5047900;28;20040;-73
2022/04/14 04:32:01;;;;;;;12.57;3.90;;;;;;;;;;5043133;28;20079;-73
2022/04/14 04:34:27;;;;;;;11.65;3.97;;;;;;;;;;5038533;28;20029;-73
2022/04/14 04:36:53;;;;;;;15.23;4.13;;;;;;;;;;5037094;28;20053;-73
2022/04/14 04:39:19;;;;;;;11.60;4.18;;;;;;;;;;5022012;28;20075;-73
2022/04/14 04:41:45;;;;;;;15.88;4.82;;;;;;;;;;5036032;28;20072;-73
2022/04/14 04:44:11;;;;;;;15.75;4.55;;;;;;;;;;5031617;28;20091;-73
2022/04/14 04:46:37;;;;;;;14.32;4.53;;;;;;;;;;5045338;28;20043;-73
2022/04/14 04:49:03;;;;;;;18.52;5.35;;;;;;;;;;5050116;28;20041;-73
2022/04/14 04:51:29;;;;;;;15.38;4.85;;;;;;;;;;5046834;28;20128;-73
2022/04/14 04:53:55;;;;;;;17.17;4.20;;;;;;;;;;5046984;28;20521;-73
2022/04/14 04:56:21;;;;;;;12.32;4.07;;;;;;;;;;5047203;28;20033;-73
2022/04/14 04:58:47;;;;;;;12.00;4.70;;;;;;;;;;5045978;28;20032;-73
2022/04/14 05:01:13;;;;;;;19.83;4.95;;;;;;;;;;5054197;28;20101;-73
2022/04/14 05:03:39;;;;;;;15.48;4.20;;;;;;;;;;5041802;28;20045;-73
2022/04/14 05:06:05;;;;;;;12.20;3.70;;;;;;;;;;5047351;28;20806;-73
2022/04/14 05:08:32;;;;;;;12.02;3.80;;;;;;;;;;5046704;28;20032;-73
2022/04/14 05:10:58;;;;;;;19.83;4.70;;;;;;;;;;5045490;28;20874;-73
2022/04/14 05:13:24;;;;;;;16.02;5.20;;;;;;;;;;5046229;28;20049;-73
2022/04/14 05:15:50;;;;;;;15.80;5.43;;;;;;;;;;5041970;28;20025;-73
2022/04/14 05:18:16;;;;;;;22.90;5.90;;;;;;;;;;5048390;28;20025;-73
2022/04/14 05:20:42;;;;;;;21.08;5.72;;;;;;;;;;5041767;28;20033;-73
2022/04/14 05:23:09;;;;;;;19.45;5.07;;;;;;;;;;5030153;28;20765;-73
2022/04/14 05:25:35;;;;;;;20.23;4.90;;;;;;;;;;5049661;28;20044;-73
2022/04/14 05:28:01;;;;;;;13.30;5.07;;;;;;;;;;5046099;28;20033;-73
2022/04/14 05:30:27;;;;;;;27.58;5.03;;;;;;;;;;5031790;28;20040;-73
2022/04/14 05:32:53;;;;;;;17.92;5.25;;;;;;;;;;5050166;28;20033;-74
2022/04/14 05:35:21;;;;;;;18.02;4.45;;;;;;;;;;5049734;28;20025;-73
2022/04/14 05:37:47;;;;;;;19.08;5.05;;;;;;;;;;5045865;28;20037;-73
2022/04/14 05:40:13;;;;;;;19.25;5.65;;;;;;;;;;5049041;28;20074;-74
2022/04/14 05:42:45;;;;;;;17.88;5.40;;;;;;;;;;5044879;28;20056;-74
2022/04/14 05:45:11;;;;;;;;;;;;;;;;;;5049592;28;20025;-74
2022/04/14 05:47:38;;;;;;;13.40;4.95;;;;;;;;;;5040438;28;20313;-74
2022/04/14 05:50:04;;;;;;;17.10;4.85;;;;;;;;;;5056786;28;20049;-74
2022/04/14 05:52:30;;;;;;;19.55;6.13;;;;;;;;;;5049903;28;20032;-74
2022/04/14 05:55:01;;;;;;;13.07;4.50;;;;;;;;;;5044013;28;20033;-74
2022/04/14 05:57:27;;;;;;;16.80;4.70;;;;;;;;;;5048464;28;20022;-74
2022/04/14 05:59:53;;;;;;;19.95;4.57;;;;;;;;;;5039038;28;20048;-74
2022/04/14 06:02:19;;;;;;;12.88;2.78;;;;;;;;;;5034659;28;20471;-74
2022/04/14 06:04:45;;;;;;;13.48;2.45;;;;;;;;;;5047801;28;20056;-74
2022/04/14 06:07:11;;;;;;;12.90;3.67;;;;;;;;;;5042044;28;20057;-74
2022/04/14 06:09:37;;;;;;;16.33;3.97;;;;;;;;;;5028683;28;20785;-74
2022/04/14 06:12:04;;;;;;;16.63;4.65;;;;;;;;;;5036878;28;20237;-74
2022/04/14 06:14:32;;;;;;;11.60;3.58;;;;;;;;;;5045758;28;20050;-74
2022/04/14 06:16:59;;;;;;;15.68;4.30;;;;;;;;;;5046658;28;20593;-74
2022/04/14 06:19:25;;;;;;;19.73;4.53;;;;;;;;;;5045145;28;20029;-74
2022/04/14 06:21:51;;;;;;;16.65;4.63;;;;;;;;;;5049453;28;20056;-74
2022/04/14 06:24:17;;;;;;;14.38;4.50;;;;;;;;;;5032225;28;20033;-74
2022/04/14 06:26:43;;;;;;;14.80;3.58;;;;;;;;;;5049210;28;20068;-74
2022/04/14 06:29:09;;;;;;;12.85;2.30;;;;;;;;;;5048409;28;20056;-74
2022/04/14 06:31:37;;;;;;;13.50;2.70;;;;;;;;;;5049647;28;20068;-74
2022/04/14 06:34:03;;;;;;;13.07;2.13;;;;;;;;;;5047504;28;20025;-74
2022/04/14 06:36:29;;;;;;;20.13;2.78;;;;;;;;;;5047538;28;20116;-75
2022/04/14 06:38:55;;;;;;;11.70;2.40;;;;;;;;;;5024935;28;20067;-74
2022/04/14 06:41:21;;;;;;;11.55;2.65;;;;;;;;;;5047905;28;20549;-74
2022/04/14 06:43:49;;;;;;;18.33;4.20;;;;;;;;;;5039875;28;20029;-74
2022/04/14 06:46:16;;;;;;;13.02;2.72;;;;;;;;;;5048000;28;20036;-74
2022/04/14 06:48:42;;;;;;;12.30;3.10;;;;;;;;;;5049784;28;20071;-74
2022/04/14 06:51:08;;;;;;;11.65;3.13;;;;;;;;;;5043345;28;20052;-74
2022/04/14 06:53:34;;;;;;;10.38;3.42;;;;;;;;;;5047046;28;20118;-74
2022/04/14 06:56:00;;;;;;;11.80;3.40;;;;;;;;;;5043688;28;20041;-74
2022/04/14 06:58:27;;;;;;;12.25;3.78;;;;;;;;;;5030701;28;20047;-74
2022/04/14 07:00:53;;;;;;;11.35;3.38;;;;;;;;;;5049371;28;20470;-75
2022/04/14 07:03:22;;;;;;;12.98;4.50;;;;;;;;;;5047774;28;20373;-74
2022/04/14 07:05:48;;;;;;;16.85;3.72;;;;;;;;;;5049021;28;20037;-74
2022/04/14 07:08:14;;;;;;;15.07;4.13;;;;;;;;;;5043808;28;20068;-74
2022/04/14 07:10:40;;;;;;;16.23;4.22;;;;;;;;;;5047806;28;20123;-74
2022/04/14 07:13:06;;;;;;;15.30;3.38;;;;;;;;;;5039316;28;20116;-74
2022/04/14 07:15:32;;;;;;;13.20;3.08;;;;;;;;;;5047906;28;20549;-74
2022/04/14 07:18:00;;;;;;;11.32;3.47;;;;;;;;;;5046984;28;20080;-74
2022/04/14 07:20:29;;;;;;;14.13;3.00;;;;;;;;;;5040557;28;20107;-75
2022/04/14 07:22:58;;;;;;;12.52;2.78;;;;;;;;;;5045131;28;20029;-74
2022/04/14 07:25:24;;;;;;;10.30;1.92;;;;;;;;;;5041065;28;20127;-74
2022/04/14 07:27:50;;;;;;;11.55;2.03;;;;;;;;;;5046498;28;20041;-74
2022/04/14 07:30:18;;;;;;;13.48;2.30;;;;;;;;;;5043615;28;20025;-75
2022/04/14 07:32:45;;;;;;;11.77;2.10;;;;;;;;;;5043444;28;20037;-74
2022/04/14 07:35:12;;;;;;;11.52;2.25;;;;;;;;;;5043221;28;20049;-74
2022/04/14 07:37:38;;;;;;;13.05;2.25;;;;;;;;;;5041701;28;20037;-74
2022/04/14 07:40:08;;;;;;;12.75;2.63;;;;;;;;;;5045705;28;20029;-74
2022/04/14 07:42:45;;;;;;;13.70;2.95;;;;;;;;;;5047256;28;20036;-75
2022/04/14 07:45:12;;;;;;;12.13;3.00;;;;;;;;;;5046861;28;20818;-74
2022/04/14 07:47:42;;;;;;;11.50;2.60;;;;;;;;;;5041210;28;20478;-74
2022/04/14 07:50:12;;;;;;;10.20;2.42;;;;;;;;;;5043655;28;20159;-74
2022/04/14 07:52:49;;;;;;;14.77;2.85;;;;;;;;;;5046273;28;20082;-74
2022/04/14 07:55:19;;;;;;;14.57;3.53;;;;;;;;;;5043245;28;20029;-75
2022/04/14 07:57:45;;;;;;;13.40;2.97;;;;;;;;;;5046278;28;20366;-75
2022/04/14 08:00:11;;;;;;;13.15;2.70;;;;;;;;;;5042977;28;20038;-75
2022/04/14 08:02:45;;;;;;;10.80;2.47;;;;;;;;;;5048414;28;20075;-75
2022/04/14 08:05:11;;;;;;;16.15;3.20;;;;;;;;;;5035220;28;20080;-74
2022/04/14 08:07:37;;;;;;;13.48;2.30;;;;;;;;;;5045362;28;20037;-75
2022/04/14 08:10:03;;;;;;;18.35;2.53;;;;;;;;;;5042304;28;20505;-75
2022/04/14 08:12:29;;;;;;;11.07;2.92;;;;;;;;;;5034524;28;20039;-75
2022/04/14 08:14:55;;;;;;;12.20;2.33;;;;;;;;;;5045722;28;20037;-75
2022/04/14 08:17:21;;;;;;;12.10;2.25;;;;;;;;;;5038373;28;20581;-74
2022/04/14 08:19:47;;;;;;;20.98;2.85;;;;;;;;;;5045147;28;20029;-75
2022/04/14 08:22:13;;;;;;;11.48;2.33;;;;;;;;;;5043445;28;20033;-75
2022/04/14 08:24:39;;;;;;;12.23;2.58;;;;;;;;;;5047826;28;20044;-75
2022/04/14 08:27:05;;;;;;;8.57;2.40;;;;;;;;;;5046558;28;20140;-75
2022/04/14 08:29:31;;;;;;;10.48;2.28;;;;;;;;;;5044920;28;20037;-75
2022/04/14 08:31:58;;;;;;;10.38;1.73;;;;;;;;;;5040866;28;20087;-75
2022/04/14 08:34:25;;;;;;;9.73;2.15;;;;;;;;;;5042918;28;20112;-75
2022/04/14 08:36:52;;;;;;;11.60;1.85;;;;;;;;;;5043863;28;20481;-75
2022/04/14 08:39:18;;;;;;;10.18;2.10;;;;;;;;;;5036221;28;20036;-75
2022/04/14 08:41:45;;;;;;;15.13;2.25;;;;;;;;;;5047123;28;20037;-75
2022/04/14 08:44:12;;;;;;;13.35;2.60;;;;;;;;;;5042746;28;20040;-75
2022/04/14 08:46:39;;;;;;;7.93;1.90;;;;;;;;;;5045050;28;20037;-75
2022/04/14 08:49:05;;;;;;;11.07;2.42;;;;;;;;;;5044572;28;20565;-75
2022/04/14 08:51:36;;;;;;;12.35;2.50;;;;;;;;;;5040723;28;20044;-75
2022/04/14 08:54:03;;;;;;;7.18;1.70;;;;;;;;;;5041182;28;20052;-75
2022/04/14 08:56:29;;;;;;;12.25;2.20;;;;;;;;;;5049949;28;20171;-75
2022/04/14 08:58:56;;;;;;;14.50;2.95;;;;;;;;;;5044747;28;20029;-74
2022/04/14 09:01:25;;;;;;;7.95;1.77;;;;;;;;;;5051027;28;20037;-75
2022/04/14 09:03:58;;;;;;;8.63;2.25;;;;;;;;;;5044184;28;20043;-75
2022/04/14 09:06:27;;;;;;;8.93;1.95;;;;;;;;;;5045460;28;20040;-75
2022/04/14 09:08:53;;;;;;;11.13;2.17;;;;;;;;;;5039482;28;20056;-75
2022/04/14 09:11:20;;;;;;;7.47;1.60;;;;;;;;;;5041861;28;20032;-74
2022/04/14 09:13:46;;;;;;;8.23;1.73;;;;;;;;;;5044826;28;20029;-75
2022/04/14 09:16:13;;;;;;;12.82;2.28;;;;;;;;;;5047189;28;20034;-75
2022/04/14 09:18:39;;;;;;;11.25;1.83;;;;;;;;;;5044304;28;20112;-75
2022/04/14 09:21:06;;;;;;;6.63;1.77;;;;;;;;;;5043998;28;20112;-75
2022/04/14 09:23:32;;;;;;;14.32;2.67;;;;;;;;;;5044196;28;20065;-75
2022/04/14 09:26:14;;;;;;;10.23;2.13;;;;;;;;;;5041558;28;20036;-75
2022/04/14 09:29:00;;;;;;;13.15;2.22;;;;;;;;;;5042091;28;20112;-75
2022/04/14 09:31:28;;;;;;;10.45;2.95;;;;;;;;;;5042102;28;20047;-75
2022/04/14 09:33:55;;;;;;;12.95;2.55;;;;;;;;;;5046976;28;20048;-75
2022/04/14 09:36:23;;;;;;;9.25;2.17;;;;;;;;;;5040893;28;20037;-75
2022/04/14 09:38:50;;;;;;;16.25;2.30;;;;;;;;;;5047119;28;20037;-75
2022/04/14 09:41:32;;;;;;;9.32;2.33;;;;;;;;;;5045439;28;20474;-75
2022/04/14 09:44:03;;;;;;;10.02;1.73;;;;;;;;;;5040194;28;20482;-75
2022/04/14 09:46:29;;;;;;;9.03;1.50;;;;;;;;;;5044790;28;20033;-75
2022/04/14 09:49:03;;;;;;;8.23;1.45;;;;;;;;;;5044519;28;20283;-75
2022/04/14 09:51:29;;;;;;;8.80;2.05;;;;;;;;;;5045793;28;20131;-75
2022/04/14 09:54:18;;;;;;;11.10;2.35;;;;;;;;;;5046314;28;20073;-75
2022/04/14 09:56:54;;;;;;;8.77;1.70;;;;;;;;;;5041209;28;20037;-75
2022/04/14 09:59:24;;;;;;;12.98;1.90;;;;;;;;;;5046474;28;20032;-75
2022/04/14 10:02:08;;;;;;;7.72;1.90;;;;;;;;;;5049678;28;20029;-75
2022/04/14 10:04:35;;;;;;;13.25;2.17;;;;;;;;;;5045190;28;20060;-75
2022/04/14 10:07:06;;;;;;;6.53;1.58;;;;;;;;;;5040197;28;20029;-75
2022/04/14 10:09:33;;;;;;;11.93;1.55;;;;;;;;;;5047022;28;20116;-75
2022/04/14 10:11:59;;;;;;;7.93;1.70;;;;;;;;;;5046115;28;20044;-75
2022/04/14 10:14:25;;;;;;;8.77;1.80;;;;;;;;;;5045821;28;20079;-75
2022/04/14 10:16:52;;;;;;;11.82;1.90;;;;;;;;;;5048118;28;20112;-74
2022/04/14 10:19:21;;;;;;;15.77;2.15;;;;;;;;;;5048851;28;20040;-75
2022/04/14 10:21:47;;;;;;;6.03;1.88;;;;;;;;;;5048140;28;20141;-75
2022/04/14 10:24:13;;;;;;;8.13;1.83;;;;;;;;;;5049070;28;20471;-74
2022/04/14 10:26:39;;;;;;;11.88;2.40;;;;;;;;;;5046138;28;20119;-75
2022/04/14 10:29:06;;;;;;;9.73;1.75;;;;;;;;;;5048478;28;20033;-75
2022/04/14 10:31:38;;;;;;;8.27;1.75;;;;;;;;;;5049430;28;20037;-75
2022/04/14 10:34:06;;;;;;;7.68;1.60;;;;;;;;;;5041359;28;20107;-75
2022/04/14 10:36:39;;;;;;;7.68;1.85;;;;;;;;;;5050147;28;20036;-75
2022/04/14 10:39:06;;;;;;;12.20;1.80;;;;;;;;;;5047432;28;20116;-74
2022/04/14 10:41:37;;;;;;;7.07;1.50;;;;;;;;;;5050093;28;20132;-75
2022/04/14 10:44:03;;;;;;;8.43;1.55;;;;;;;;;;5049340;28;20690;-75
2022/04/14 10:46:33;;;;;;;9.63;1.70;;;;;;;;;;5049526;28;20037;-75
2022/04/14 10:49:15;;;;;;;10.95;1.73;;;;;;;;;;5037729;28;20025;-75
2022/04/14 10:51:41;;;;;;;;;;;;;;;;;;5043415;28;20028;-76
2022/04/14 10:54:11;;;;;;;7.45;1.67;;;;;;;;;;5040517;28;19924;-75
2022/04/14 10:56:37;;;;;;;5.00;1.50;;;;;;;;;;5042078;28;20037;-75
2022/04/14 10:59:09;;;;;;;9.15;1.60;;;;;;;;;;5045444;28;20040;-75
2022/04/14 11:01:48;;;;;;;7.75;1.85;;;;;;;;;;5054994;28;20060;-75
2022/04/14 11:04:25;;;;;;;7.93;1.50;;;;;;;;;;5047337;28;20067;-74
2022/04/14 11:06:52;;;;;;;10.27;1.52;;;;;;;;;;5045642;28;20034;-76
2022/04/14 11:09:37;;;;;;;8.20;1.83;;;;;;;;;;5047983;28;20032;-75
2022/04/14 11:12:03;;;;;;;9.25;1.67;;;;;;;;;;5049964;28;20033;-75
2022/04/14 11:14:29;;;;;;;10.73;1.25;;;;;;;;;;5047326;28;20059;-75
2022/04/14 11:16:55;;;;;;;10.48;1.70;;;;;;;;;;5048872;28;20507;-76
2022/04/14 11:19:27;;;;;;;13.95;2.00;;;;;;;;;;5048902;28;20039;-76
2022/04/14 11:22:02;;;;;;;9.57;1.95;;;;;;;;;;5050537;28;20025;-75
2022/04/14 11:24:40;;;;;;;12.65;1.58;;;;;;;;;;5044409;28;20725;-76
2022/04/14 11:27:14;;;;;;;10.73;1.67;;;;;;;;;;5043191;28;20124;-75
2022/04/14 11:29:42;;;;;;;7.38;2.08;;;;;;;;;;5049138;28;20116;-75
2022/04/14 11:32:09;;;;;;;8.35;1.67;;;;;;;;;;5042616;28;20063;-75
2022/04/14 11:34:36;;;;;;;9.35;1.80;;;;;;;;;;5047175;28;20032;-75
2022/04/14 11:37:04;;;;;;;10.85;1.90;;;;;;;;;;5048856;28;20823;-76
2022/04/14 11:39:30;;;;;;;11.93;1.77;;;;;;;;;;5044803;28;20974;-75
2022/04/14 11:42:03;;;;;;;12.43;2.05;;;;;;;;;;5046341;28;20454;-75
2022/04/14 11:44:34;;;;;;;11.13;1.55;;;;;;;;;;5048614;28;20033;-75
2022/04/14 11:47:01;;;;;;;9.77;1.75;;;;;;;;;;5046684;28;20037;-75
2022/04/14 11:49:34;;;;;;;11.88;1.48;;;;;;;;;;5048490;28;20029;-75
2022/04/14 11:52:04;;;;;;;13.70;2.22;;;;;;;;;;5047932;28;20040;-76
2022/04/14 11:54:30;;;;;;;14.75;2.80;;;;;;;;;;5048525;28;20033;-75
2022/04/14 11:56:57;;;;;;;11.23;2.05;;;;;;;;;;5047551;28;20033;-75
2022/04/14 11:59:33;;;;;;;9.65;1.70;;;;;;;;;;5043491;28;20025;-75
2022/04/14 12:02:02;;;;;;;15.30;2.25;;;;;;;;;;5043522;28;20033;-75
2022/04/14 12:04:28;;;;;;;7.47;1.80;;;;;;;;;;5043557;28;20049;-76
2022/04/14 12:06:55;;;;;;;11.60;2.05;;;;;;;;;;5044614;28;20062;-75
2022/04/14 12:09:21;;;;;;;9.70;1.88;;;;;;;;;;5043677;28;20028;-75
2022/04/14 12:11:47;;;;;;;8.70;1.85;;;;;;;;;;5041492;28;20033;-74
2022/04/14 12:14:14;;;;;;;11.00;1.90;;;;;;;;;;5040373;28;20372;-75
2022/04/14 12:16:47;;;;;;;9.75;1.70;;;;;;;;;;5044301;28;20032;-75
2022/04/14 12:19:13;;;;;;;8.95;1.98;;;;;;;;;;5044925;28;20059;-75
2022/04/14 12:21:39;;;;;;;8.07;2.08;;;;;;;;;;5047301;28;20477;-75
2022/04/14 12:24:05;;;;;;;12.32;2.20;;;;;;;;;;5047789;28;20043;-75
2022/04/14 12:26:35;;;;;;;15.32;2.38;;;;;;;;;;5046654;28;20078;-75
2022/04/14 12:29:01;;;;;;;16.30;2.60;;;;;;;;;;5045325;28;20112;-75
2022/04/14 12:31:29;;;;;;;12.60;2.13;;;;;;;;;;5046662;28;20079;-75
2022/04/14 12:33:57;;;;;;;9.85;1.92;;;;;;;;;;5045619;28;20131;-75
2022/04/14 12:36:32;;;;;;;10.50;2.10;;;;;;;;;;5046071;28;20029;-75
2022/04/14 12:38:58;;;;;;;9.05;1.40;;;;;;;;;;5046663;28;20025;-75
2022/04/14 12:41:24;;;;;;;6.60;1.77;;;;;;;;;;5045412;28;20106;-75
2022/04/14 12:43:51;;;;;;;12.05;2.47;;;;;;;;;;5041340;28;20037;-75
2022/04/14 12:46:21;;;;;;;12.45;1.85;;;;;;;;;;5046526;28;20037;-76
2022/04/14 12:48:47;;;;;;;18.77;2.53;;;;;;;;;;5047054;28;20039;-75
2022/04/14 12:51:13;;;;;;;7.35;2.03;;;;;;;;;;5051530;28;20102;-75
2022/04/14 12:53:39;;;;;;;10.50;1.98;;;;;;;;;;5046154;28;20541;-75
2022/04/14 12:56:11;;;;;;;11.07;2.53;;;;;;;;;;5047382;28;20075;-75
2022/04/14 12:58:37;;;;;;;;;;;;;;;;;;5043131;28;20067;-75
2022/04/14 13:01:07;;;;;;;10.57;1.92;;;;;;;;;;5042773;28;19948;-75
2022/04/14 13:03:44;;;;;;;9.63;1.60;;;;;;;;;;5041103;28;20021;-75
2022/04/14 13:06:17;;;;;;;6.90;1.98;;;;;;;;;;5046522;28;20048;-75
2022/04/14 13:08:44;;;;;;;7.82;1.65;;;;;;;;;;5043222;28;20025;-75
2022/04/14 13:11:10;;;;;;;6.57;1.60;;;;;;;;;;5046587;28;20110;-75
2022/04/14 13:13:36;;;;;;;10.70;2.00;;;;;;;;;;5039262;28;20099;-75
2022/04/14 13:16:02;;;;;;;9.77;1.90;;;;;;;;;;5038657;28;20069;-75
2022/04/14 13:18:29;;;;;;;11.30;2.17;;;;;;;;;;5046286;28;20428;-75
2022/04/14 13:20:55;;;;;;;9.00;1.75;;;;;;;;;;5045520;28;20475;-75
2022/04/14 13:23:21;;;;;;;9.38;1.80;;;;;;;;;;5038963;28;20469;-75
2022/04/14 13:25:49;;;;;;;8.50;1.90;;;;;;;;;;5045415;28;20037;-74
2022/04/14 13:28:15;;;;;;;6.43;1.63;;;;;;;;;;5039977;28;20037;-75
2022/04/14 13:30:41;;;;;;;12.68;2.45;;;;;;;;;;5041231;28;20525;-75
2022/04/14 13:33:07;;;;;;;10.38;1.65;;;;;;;;;;5043126;28;20470;-75
2022/04/14 13:35:34;;;;;;;13.98;2.00;;;;;;;;;;5051372;28;20032;-75
2022/04/14 13:38:00;;;;;;;8.70;1.20;;;;;;;;;;5051116;28;20033;-75
2022/04/14 13:40:26;;;;;;;7.65;1.67;;;;;;;;;;5050816;28;20033;-76
2022/04/14 13:42:52;;;;;;;5.53;1.30;;;;;;;;;;5039973;28;20034;-75
2022/04/14 13:45:18;;;;;;;10.23;2.17;;;;;;;;;;5050199;28;20340;-75
2022/04/14 13:47:44;;;;;;;9.13;1.90;;;;;;;;;;5050401;28;20060;-75
2022/04/14 13:50:11;;;;;;;7.22;1.60;;;;;;;;;;5050285;28;20554;-75
2022/04/14 13:52:37;;;;;;;9.07;2.08;;;;;;;;;;5050595;28;20043;-75
2022/04/14 13:55:04;;;;;;;11.70;1.77;;;;;;;;;;5044927;28;20044;-75
2022/04/14 13:57:30;;;;;;;11.55;1.98;;;;;;;;;;5050342;28;20025;-75
2022/04/14 13:59:56;;;;;;;14.35;2.08;;;;;;;;;;5049849;28;20547;-75
2022/04/14 14:02:23;;;;;;;12.20;1.60;;;;;;;;;;5050322;28;20103;-75
2022/04/14 14:04:49;;;;;;;6.70;1.33;;;;;;;;;;5049895;28;20064;-75
2022/04/14 14:07:15;;;;;;;12.30;2.13;;;;;;;;;;5048753;28;20034;-75
2022/04/14 14:09:41;;;;;;;11.43;2.22;;;;;;;;;;5051194;28;20162;-75
2022/04/14 14:12:07;;;;;;;11.98;1.73;;;;;;;;;;5050562;28;20178;-76
2022/04/14 14:14:33;;;;;;;7.63;1.63;;;;;;;;;;5050484;28;20037;-76
2022/04/14 14:16:59;;;;;;;6.47;1.90;;;;;;;;;;5045639;28;20033;-75
2022/04/14 14:19:26;;;;;;;13.82;1.73;;;;;;;;;;5050418;28;20452;-75
2022/04/14 14:21:52;;;;;;;12.00;2.00;;;;;;;;;;5038639;28;20064;-75
2022/04/14 14:24:18;;;;;;;11.20;2.05;;;;;;;;;;5046995;28;20040;-75
2022/04/14 14:26:45;;;;;;;11.70;2.05;;;;;;;;;;5043820;28;20041;-76
2022/04/14 14:29:11;;;;;;;8.18;1.70;;;;;;;;;;5048919;28;20037;-75
2022/04/14 14:31:39;;;;;;;9.63;1.90;;;;;;;;;;5043486;28;20060;-76
2022/04/14 14:34:05;;;;;;;9.23;1.80;;;;;;;;;;5043256;28;20507;-75
2022/04/14 14:36:31;;;;;;;13.95;2.20;;;;;;;;;;5045215;28;20066;-75